Live Nation Entertainment (LYV) Institutional Ownership

$96.59
+0.21 (+0.22%)
(As of 05/17/2024 ET)

Institutional Ownership Changes (13F Filings) for Live Nation Entertainment (NYSE:LYV)

Current
Institutional Ownership
Percentage
74.52%
Number of
Institutional Buyers
(last 12 months)
330
Total
Institutional Inflows
(last 12 months)
$2.39B
Number of
Institutional Sellers
(last 12 months)
227
Total
Institutional Outflows
(last 12 months)
$1.63B
Get LYV Insider Trade Alerts

Want to know when executives and insiders are buying or selling Live Nation Entertainment stock? Sign up for InsiderTrades.com's daily newsletter to get the latest insider transactions delivered to your inbox daily.

Skip Chart & View Institutional Buying and Selling Data

LYV Institutional Buying and Selling by Quarter

Live Nation Entertainment Major Shareholders & Ownership History

Reporting DateMajor Shareholder NameShares HeldMarket Value% of PortfolioQuarterly Change in SharesOwnership in CompanyDetails
5/17/2024 Plato Investment Management Ltd5,359$567K0.1%+3,291.8%0.002%
5/17/2024 Western Pacific Wealth Management LP1,125$119K0.1%+14.7%0.000%
5/17/2024 iA Global Asset Management Inc.5,754$609K0.0%N/A0.002%
5/17/2024 LBP AM SA3,944$417K0.0%-99.6%0.002%
5/17/2024 Comerica Bank60,266$6.37M0.0%-0.6%0.026%
5/17/2024 Tidal Investments LLC22,354$2.36M0.0%+81.5%0.010%
5/17/2024 Motley Fool Asset Management LLC3,571$378K0.0%-3.5%0.002%
5/16/2024 California State Teachers Retirement System257,860$27.27M0.0%+0.9%0.111%
5/16/2024 Meiji Yasuda Life Insurance Co3,720$393K0.0%-59.5%0.002%
5/16/2024 Levin Capital Strategies L.P.28,832$3.05M0.3%-1.3%0.012%
5/16/2024 B. Riley Wealth Advisors Inc.6,634$702K0.0%+4.5%0.003%
5/16/2024 Dynasty Wealth Management LLC3,224$341K0.0%N/A0.001%
5/16/2024 2Xideas AG107,403$11.36M1.4%-17.5%0.046%
5/16/2024 Jacobs Levy Equity Management Inc.921,664$97.48M0.4%-5.8%0.398%
5/16/2024 Janus Henderson Group PLC13,305$1.41M0.0%-16.0%0.006%
5/16/2024 Jericho Capital Asset Management L.P.1,340,000$141.73M3.8%-10.7%0.579%
5/16/2024 Kodai Capital Management LP466,018$49.29M1.2%-1.6%0.201%
5/16/2024 Bayesian Capital Management LP17,300$1.83M0.2%-12.6%0.007%
5/16/2024 Bornite Capital Management LP150,000$15.87M2.7%N/A0.065%
5/15/2024 Public Employees Retirement System of Ohio84,630$8.95M0.0%-10.9%0.037%
5/15/2024 Public Employees Retirement Association of Colorado243,094$25.71M0.1%-0.4%0.105%
5/15/2024 Morse Asset Management Inc2,132$226K0.1%N/A0.001%
5/15/2024 Kentucky Retirement Systems Insurance Trust Fund4,682$495K0.0%-7.4%0.002%
5/15/2024 Kentucky Retirement Systems10,775$1.14M0.0%-5.1%0.005%
5/15/2024 Price T Rowe Associates Inc. MD546,372$57.79M0.0%-16.9%0.236%
5/15/2024 Epoch Investment Partners Inc.469,074$49.61M0.2%-2.0%0.203%
5/14/2024 Canada Pension Plan Investment Board8,566,700$906.10M1.0%-3.8%3.701%
5/14/2024 Capital World Investors557,829$59.00M0.0%-0.1%0.241%
5/14/2024 Toronto Dominion Bank49,939$5.28M0.0%-14.3%0.022%
5/14/2024 Cadence Bank10,383$1.10M0.1%+8.6%0.004%
5/14/2024 Shell Asset Management Co.16,255$1.72M0.1%+27.9%0.007%
5/14/2024 Boulder Hill Capital Management LP38,300$4.05M1.7%N/A0.017%
5/14/2024 CANADA LIFE ASSURANCE Co102,709$10.87M0.0%+22.6%0.044%
5/14/2024 Oxford Financial Group LTD. LLC2,084$220K0.0%N/A0.001%
5/14/2024 American International Group Inc.38,901$4.12M0.0%-1.1%0.017%
5/13/2024 Bessemer Group Inc.1,397,185$147.78M0.3%+34.4%0.604%
5/13/2024 UniSuper Management Pty Ltd11,140$1.18M0.0%+462.6%0.005%
5/13/2024 O Shaughnessy Asset Management LLC6,380$675K0.0%+9.2%0.003%
5/11/2024 Covestor Ltd1,157$122K0.1%-15.2%0.000%
5/11/2024 Edgestream Partners L.P.2,578$273K0.0%N/A0.001%
He called Apple at $1.49 and now he says: “Buy these 6 AI stocks.” (Ad)

For over four decades, Louis Navellier has found the very best tech stocks... Before the rest of the market.

Click for his six specific AI stock in the crosshairs
5/10/2024 Vanguard Group Inc.18,068,765$1.91B0.0%+0.6%7.807%
5/10/2024 Westfield Capital Management Co. LP413,794$43.77M0.2%-2.1%0.179%
5/10/2024 Intech Investment Management LLC5,542$586K0.0%-75.1%0.002%
5/10/2024 Mitsubishi UFJ Trust & Banking Corp81,002$8.57M0.0%-5.5%0.035%
5/10/2024 Mizuho Markets Americas LLC131,429$13.90M0.3%-19.2%0.057%
5/10/2024 Tocqueville Asset Management L.P.2,062$218K0.0%N/A0.001%
5/10/2024 GM Advisory Group LLC12,300$1.30M0.1%N/A0.005%
5/9/2024 Orion Portfolio Solutions LLC10,665$1.13M0.0%-42.0%0.005%
5/9/2024 Blair William & Co. IL887,381$93.86M0.3%+14.6%0.383%
5/9/2024 Scout Investments Inc.204,470$21.31M0.5%-6.2%0.088%
5/9/2024 Managed Asset Portfolios LLC43,322$4.58M0.7%N/A0.019%
5/9/2024 Mitsubishi UFJ Asset Management Co. Ltd.184,309$19.49M0.0%+19.2%0.080%
5/9/2024 State Board of Administration of Florida Retirement System161,491$17.08M0.0%+1.0%0.070%
5/8/2024 BNP PARIBAS ASSET MANAGEMENT Holding S.A.8,560$905K0.0%+147.0%0.004%
5/8/2024 William Blair Investment Management LLC3,633,791$384.35M1.0%+12.0%1.570%
5/8/2024 Motley Fool Asset Management LLC3,571$378K0.0%-3.5%0.002%
5/8/2024 Bleakley Financial Group LLC30,216$3.20M0.1%+20.3%0.013%
5/8/2024 Cantillon Capital Management LLC3,205,694$339.07M2.1%+16.7%1.385%
5/8/2024 US Bancorp DE17,858$1.89M0.0%-15.1%0.008%
5/8/2024 Hohimer Wealth Management LLC11,297$1.20M0.3%-2.8%0.005%
5/8/2024 Russell Investments Group Ltd.447,653$47.36M0.1%+9.0%0.193%
5/8/2024 Qsemble Capital Management LP8,722$923K0.2%N/A0.004%
5/8/2024 Headlands Technologies LLC1,303$138K0.0%N/A0.001%
5/8/2024 Williams Jones Wealth Management LLC.2,130$225K0.0%-49.8%0.001%
5/8/2024 Donoghue Forlines LLC16,301$1.72M0.5%N/A0.007%
5/7/2024 Quantum Private Wealth LLC2,046$216K0.1%N/A0.001%
5/7/2024 Swiss National Bank482,900$51.08M0.0%-4.1%0.209%
5/7/2024 Forsta AP Fonden101,000$10.68M0.1%+3.3%0.044%
5/7/2024 Highland Capital Management LLC44,000$4.65M0.3%-1.1%0.019%
5/7/2024 Oppenheimer & Co. Inc.2,000$212K0.0%N/A0.001%
5/7/2024 Empowered Funds LLC2,659$281K0.0%N/A0.001%
5/6/2024 Quantbot Technologies LP4,504$476K0.0%-42.7%0.002%
5/6/2024 Envestnet Portfolio Solutions Inc.4,678$495K0.0%+27.3%0.002%
5/6/2024 Empirical Finance LLC4,819$510K0.0%+3.7%0.002%
5/4/2024 DAVENPORT & Co LLC1,241,525$131.76M0.8%+8.8%0.538%
5/3/2024 Coronation Fund Managers Ltd.34,519$3.65M0.1%+6.4%0.015%
5/3/2024 Chevy Chase Trust Holdings LLC79,322$8.39M0.0%-1.7%0.034%
5/3/2024 BI Asset Management Fondsmaeglerselskab A S3,326$352K0.0%-48.8%0.001%
5/3/2024 Central Pacific Bank Trust Division13,950$1.45M0.2%N/A0.006%
5/2/2024 Mutual of America Capital Management LLC18,582$1.97M0.0%-2.0%0.008%
5/2/2024 FORA Capital LLC2,417$256K0.0%N/A0.001%
5/2/2024 Daiwa Securities Group Inc.15,465$1.64M0.0%-18.7%0.007%
5/2/2024 Pittenger & Anderson Inc.38,075$4.03M0.2%-67.4%0.016%
5/2/2024 Nordea Investment Management AB1,377,118$146.57M0.2%+15.8%0.597%
5/2/2024 Fidelis Capital Partners LLC3,401$360K0.1%+11.9%0.001%
5/2/2024 Tokio Marine Asset Management Co. Ltd.5,054$535K0.0%+11.7%0.002%
5/2/2024 Harbor Advisors LLC2,000$212K0.0%N/A0.001%
5/1/2024 Janney Montgomery Scott LLC12,583$1.33M0.0%+442.1%0.005%
5/1/2024 Alta Wealth Advisors LLC2,031$215K0.1%N/A0.001%
5/1/2024 Mirae Asset Global Investments Co. Ltd.36,371$3.85M0.0%+6.4%0.016%
Obama’s Forever Term [exposed] (Ad)

America’s Last Election New documentary, America’s Last Election, reveals the true (and terrifying) story of how the D.C. establishment has engineered a brutal new crisis that could hand them permanent power. Power they will use to reshape America to their dark, dystopian vision.

Start streaming it now at no cost here
5/1/2024 Sequoia Financial Advisors LLC2,366$250K0.0%-40.7%0.001%
4/30/2024 Findlay Park Partners LLP2,929,300$309.83M2.8%-1.7%1.269%
4/30/2024 Van ECK Associates Corp45,161$4.78M0.0%+26.8%0.020%
4/30/2024 Allspring Global Investments Holdings LLC587,912$62.18M0.1%+3.5%0.255%
4/30/2024Commonwealth Equity Services LLC13,049$1.38M0.0%+9.1%0.006%
4/29/2024 Principal Financial Group Inc.7,129,992$754.14M0.4%+0.1%3.089%
4/29/2024 Benjamin F. Edwards & Company Inc.5,844$618K0.0%+10.8%0.003%
4/29/2024 Lederer & Associates Investment Counsel CA9,714$1.03M0.7%+8.4%0.004%
4/29/2024 Mn Services Vermogensbeheer B.V.65,200$6.90M0.1%N/A0.028%
4/26/2024 Securian Asset Management Inc.8,316$880K0.0%-6.4%0.004%
(Data available from 1/1/2016 forward)

LYV Institutional Ownership - Frequently Asked Questions

Who are the largest shareholders of LYV shares?

During the previous two years, 600 institutional investors and hedge funds held shares of Live Nation Entertainment. The most heavily invested institutionals were Vanguard Group Inc. ($1.91B), Canada Pension Plan Investment Board ($906.10M), Principal Financial Group Inc. ($754.14M), William Blair Investment Management LLC ($384.35M), Cantillon Capital Management LLC ($339.07M), Lone Pine Capital LLC ($313.12M), and Findlay Park Partners LLP ($309.83M).Learn more on LYV's institutional investors.

What percentage of Live Nation Entertainment stock is owned by institutional investors?

74.52% of Live Nation Entertainment stock is owned by institutional investors. Learn more on LYV's institutional investor holdings.

Which institutional investors have been buying Live Nation Entertainment stock?

Of the 514 institutional investors that purchased Live Nation Entertainment stock in the last 24 months, the following investors and hedge funds have bought the highest volume of shares: D1 Capital Partners L.P. ($3.73M), Cantillon Capital Management LLC ($3.21M), Findlay Park Partners LLP ($3.06M), Norges Bank ($2.65M), Artisan Partners Limited Partnership ($2.19M), Jericho Capital Asset Management L.P. ($2.10M), and Assenagon Asset Management S.A. ($1.87M).

How much institutional buying is happening at Live Nation Entertainment?

Institutional investors have bought a total of 52,010,740 shares in the last 24 months. This purchase volume represents approximately $4.32B in transactions.

Which Live Nation Entertainment major shareholders have been selling company stock?

Of the 340 institutional investors that sold Live Nation Entertainment stock in the last 24 months, the following investors and hedge funds have sold the highest volume of shares: Allianz Asset Management GmbH ($122.88M), UBS Asset Management Americas Inc. ($49.47M), Lord Abbett & CO. LLC ($20.96M), Citigroup Inc. ($10.60M), Fred Alger Management LLC ($3.89M), Victory Capital Management Inc. ($3.47M), and Macquarie Group Ltd. ($2.56M).

How much institutional selling is happening at Live Nation Entertainment?

Institutional investors have sold a total of 252,582,363 shares in the last 24 months. This volume of shares sold represents approximately $19.52B in transactions.


This page (NYSE:LYV) was last updated on 5/18/2024 by MarketBeat.com Staff

From Our Partners